sensor_id;sensor_type;location;lat;lon;timestamp;P1;durP1;ratioP1;P2;durP2;ratioP2
43986;SDS011;29650;47.378;8.300;2023-09-30T00:00:56;21.00;;;8.30;;
43986;SDS011;29650;47.378;8.300;2023-09-30T00:03:23;24.45;;;8.48;;
43986;SDS011;29650;47.378;8.300;2023-09-30T00:05:51;20.42;;;8.82;;
43986;SDS011;29650;47.378;8.300;2023-09-30T00:08:18;23.17;;;9.13;;
43986;SDS011;29650;47.378;8.300;2023-09-30T00:10:45;26.77;;;9.25;;
43986;SDS011;29650;47.378;8.300;2023-09-30T00:13:12;19.40;;;8.35;;
43986;SDS011;29650;47.378;8.300;2023-09-30T00:15:39;23.10;;;9.20;;
43986;SDS011;29650;47.378;8.300;2023-09-30T00:18:06;21.13;;;7.82;;
43986;SDS011;29650;47.378;8.300;2023-09-30T00:20:34;19.13;;;8.15;;
43986;SDS011;29650;47.378;8.300;2023-09-30T00:23:03;22.77;;;8.38;;
43986;SDS011;29650;47.378;8.300;2023-09-30T00:25:31;24.42;;;9.35;;
43986;SDS011;29650;47.378;8.300;2023-09-30T00:27:58;23.67;;;9.15;;
43986;SDS011;29650;47.378;8.300;2023-09-30T00:30:25;19.67;;;8.32;;
43986;SDS011;29650;47.378;8.300;2023-09-30T00:32:52;22.30;;;7.88;;
43986;SDS011;29650;47.378;8.300;2023-09-30T00:35:19;22.65;;;7.85;;
43986;SDS011;29650;47.378;8.300;2023-09-30T00:37:46;20.52;;;8.32;;
43986;SDS011;29650;47.378;8.300;2023-09-30T00:40:14;20.02;;;8.18;;
43986;SDS011;29650;47.378;8.300;2023-09-30T00:42:41;19.80;;;8.13;;
43986;SDS011;29650;47.378;8.300;2023-09-30T00:45:09;17.20;;;6.90;;
43986;SDS011;29650;47.378;8.300;2023-09-30T00:47:36;20.92;;;8.48;;
43986;SDS011;29650;47.378;8.300;2023-09-30T00:50:04;21.30;;;7.68;;
43986;SDS011;29650;47.378;8.300;2023-09-30T00:52:34;23.85;;;9.18;;
43986;SDS011;29650;47.378;8.300;2023-09-30T00:55:03;19.20;;;7.03;;
43986;SDS011;29650;47.378;8.300;2023-09-30T00:57:33;18.08;;;7.65;;
43986;SDS011;29650;47.378;8.300;2023-09-30T01:02:28;20.98;;;7.47;;
43986;SDS011;29650;47.378;8.300;2023-09-30T01:04:55;20.60;;;7.47;;
43986;SDS011;29650;47.378;8.300;2023-09-30T01:07:22;16.70;;;7.40;;
43986;SDS011;29650;47.378;8.300;2023-09-30T01:09:49;20.25;;;7.43;;
43986;SDS011;29650;47.378;8.300;2023-09-30T01:12:16;19.58;;;6.72;;
43986;SDS011;29650;47.378;8.300;2023-09-30T01:14:45;18.65;;;7.60;;
43986;SDS011;29650;47.378;8.300;2023-09-30T01:17:12;21.60;;;8.00;;
43986;SDS011;29650;47.378;8.300;2023-09-30T01:19:39;18.98;;;7.32;;
43986;SDS011;29650;47.378;8.300;2023-09-30T01:22:09;26.25;;;9.43;;
43986;SDS011;29650;47.378;8.300;2023-09-30T01:24:39;17.88;;;7.55;;
43986;SDS011;29650;47.378;8.300;2023-09-30T01:27:06;18.75;;;7.57;;
43986;SDS011;29650;47.378;8.300;2023-09-30T01:29:33;20.95;;;7.88;;
43986;SDS011;29650;47.378;8.300;2023-09-30T01:32:03;17.10;;;7.93;;
43986;SDS011;29650;47.378;8.300;2023-09-30T01:36:59;20.67;;;7.88;;
43986;SDS011;29650;47.378;8.300;2023-09-30T01:39:27;19.95;;;7.78;;
43986;SDS011;29650;47.378;8.300;2023-09-30T01:41:55;20.25;;;8.07;;
43986;SDS011;29650;47.378;8.300;2023-09-30T01:44:22;20.77;;;7.97;;
43986;SDS011;29650;47.378;8.300;2023-09-30T01:46:49;22.45;;;7.50;;
43986;SDS011;29650;47.378;8.300;2023-09-30T01:49:16;15.05;;;6.60;;
43986;SDS011;29650;47.378;8.300;2023-09-30T01:51:44;19.05;;;7.68;;
43986;SDS011;29650;47.378;8.300;2023-09-30T01:54:11;19.83;;;7.28;;
43986;SDS011;29650;47.378;8.300;2023-09-30T01:56:39;18.67;;;6.50;;
43986;SDS011;29650;47.378;8.300;2023-09-30T01:59:06;21.27;;;7.93;;
43986;SDS011;29650;47.378;8.300;2023-09-30T02:01:33;20.33;;;7.90;;
43986;SDS011;29650;47.378;8.300;2023-09-30T02:04:00;25.80;;;9.00;;
43986;SDS011;29650;47.378;8.300;2023-09-30T02:06:27;17.95;;;6.95;;
43986;SDS011;29650;47.378;8.300;2023-09-30T02:08:54;20.92;;;7.30;;
43986;SDS011;29650;47.378;8.300;2023-09-30T02:11:21;16.77;;;6.45;;
43986;SDS011;29650;47.378;8.300;2023-09-30T02:13:50;21.88;;;7.32;;
43986;SDS011;29650;47.378;8.300;2023-09-30T02:16:17;16.77;;;7.05;;
43986;SDS011;29650;47.378;8.300;2023-09-30T02:18:44;17.60;;;6.43;;
43986;SDS011;29650;47.378;8.300;2023-09-30T02:21:11;21.23;;;7.63;;
43986;SDS011;29650;47.378;8.300;2023-09-30T02:23:38;18.52;;;7.05;;
43986;SDS011;29650;47.378;8.300;2023-09-30T02:26:05;19.80;;;7.20;;
43986;SDS011;29650;47.378;8.300;2023-09-30T02:28:32;16.58;;;6.72;;
43986;SDS011;29650;47.378;8.300;2023-09-30T02:31:01;21.45;;;6.65;;
43986;SDS011;29650;47.378;8.300;2023-09-30T02:33:28;16.63;;;6.78;;
43986;SDS011;29650;47.378;8.300;2023-09-30T02:35:55;15.77;;;6.60;;
43986;SDS011;29650;47.378;8.300;2023-09-30T02:38:22;17.77;;;7.22;;
43986;SDS011;29650;47.378;8.300;2023-09-30T02:40:50;18.67;;;6.72;;
43986;SDS011;29650;47.378;8.300;2023-09-30T02:43:17;18.23;;;6.68;;
43986;SDS011;29650;47.378;8.300;2023-09-30T02:45:45;21.05;;;7.63;;
43986;SDS011;29650;47.378;8.300;2023-09-30T02:48:13;14.52;;;5.55;;
43986;SDS011;29650;47.378;8.300;2023-09-30T02:50:41;16.25;;;5.75;;
43986;SDS011;29650;47.378;8.300;2023-09-30T02:53:10;22.40;;;7.35;;
43986;SDS011;29650;47.378;8.300;2023-09-30T02:55:38;17.80;;;6.40;;
43986;SDS011;29650;47.378;8.300;2023-09-30T02:58:05;16.55;;;6.30;;
43986;SDS011;29650;47.378;8.300;2023-09-30T03:00:32;16.02;;;6.18;;
43986;SDS011;29650;47.378;8.300;2023-09-30T03:03:00;17.38;;;6.65;;
43986;SDS011;29650;47.378;8.300;2023-09-30T03:05:29;15.75;;;6.13;;
43986;SDS011;29650;47.378;8.300;2023-09-30T03:07:58;17.83;;;6.70;;
43986;SDS011;29650;47.378;8.300;2023-09-30T03:10:26;17.92;;;5.93;;
43986;SDS011;29650;47.378;8.300;2023-09-30T03:12:54;20.00;;;6.30;;
43986;SDS011;29650;47.378;8.300;2023-09-30T03:15:21;16.38;;;6.13;;
43986;SDS011;29650;47.378;8.300;2023-09-30T03:17:49;17.80;;;6.07;;
43986;SDS011;29650;47.378;8.300;2023-09-30T03:20:16;15.68;;;5.82;;
43986;SDS011;29650;47.378;8.300;2023-09-30T03:22:46;16.90;;;6.28;;
43986;SDS011;29650;47.378;8.300;2023-09-30T03:25:14;14.52;;;5.45;;
43986;SDS011;29650;47.378;8.300;2023-09-30T03:27:42;18.33;;;6.90;;
43986;SDS011;29650;47.378;8.300;2023-09-30T03:30:11;14.07;;;5.73;;
43986;SDS011;29650;47.378;8.300;2023-09-30T03:32:40;11.00;;;4.43;;
43986;SDS011;29650;47.378;8.300;2023-09-30T03:35:08;12.43;;;4.43;;
43986;SDS011;29650;47.378;8.300;2023-09-30T03:37:40;11.48;;;4.53;;
43986;SDS011;29650;47.378;8.300;2023-09-30T03:40:09;11.70;;;4.63;;
43986;SDS011;29650;47.378;8.300;2023-09-30T03:42:39;9.43;;;4.10;;
43986;SDS011;29650;47.378;8.300;2023-09-30T03:45:07;11.88;;;4.45;;
43986;SDS011;29650;47.378;8.300;2023-09-30T03:47:35;9.70;;;4.18;;
43986;SDS011;29650;47.378;8.300;2023-09-30T03:50:02;10.73;;;3.47;;
43986;SDS011;29650;47.378;8.300;2023-09-30T03:52:29;11.57;;;4.60;;
43986;SDS011;29650;47.378;8.300;2023-09-30T03:54:58;10.93;;;3.80;;
43986;SDS011;29650;47.378;8.300;2023-09-30T03:57:30;13.30;;;3.55;;
43986;SDS011;29650;47.378;8.300;2023-09-30T03:59:58;15.25;;;3.90;;
43986;SDS011;29650;47.378;8.300;2023-09-30T04:02:25;13.60;;;4.90;;
43986;SDS011;29650;47.378;8.300;2023-09-30T04:04:52;7.50;;;3.83;;
43986;SDS011;29650;47.378;8.300;2023-09-30T04:07:21;12.60;;;5.05;;
43986;SDS011;29650;47.378;8.300;2023-09-30T04:09:52;10.30;;;4.35;;
43986;SDS011;29650;47.378;8.300;2023-09-30T04:12:20;12.32;;;4.40;;
43986;SDS011;29650;47.378;8.300;2023-09-30T04:14:50;8.70;;;3.45;;
43986;SDS011;29650;47.378;8.300;2023-09-30T04:17:17;9.30;;;3.75;;
43986;SDS011;29650;47.378;8.300;2023-09-30T04:19:44;9.57;;;3.10;;
43986;SDS011;29650;47.378;8.300;2023-09-30T04:22:11;11.25;;;4.00;;
43986;SDS011;29650;47.378;8.300;2023-09-30T04:24:39;8.25;;;2.83;;
43986;SDS011;29650;47.378;8.300;2023-09-30T04:27:06;10.48;;;4.32;;
43986;SDS011;29650;47.378;8.300;2023-09-30T04:29:33;11.15;;;3.25;;
43986;SDS011;29650;47.378;8.300;2023-09-30T04:32:01;8.35;;;3.28;;
43986;SDS011;29650;47.378;8.300;2023-09-30T04:34:30;9.73;;;3.50;;
43986;SDS011;29650;47.378;8.300;2023-09-30T04:36:57;11.75;;;3.67;;
43986;SDS011;29650;47.378;8.300;2023-09-30T04:39:24;7.43;;;3.03;;
43986;SDS011;29650;47.378;8.300;2023-09-30T04:41:51;9.95;;;3.00;;
43986;SDS011;29650;47.378;8.300;2023-09-30T04:44:19;8.10;;;2.80;;
43986;SDS011;29650;47.378;8.300;2023-09-30T04:46:47;10.00;;;3.20;;
43986;SDS011;29650;47.378;8.300;2023-09-30T04:49:16;10.07;;;3.65;;
43986;SDS011;29650;47.378;8.300;2023-09-30T04:51:43;10.53;;;2.90;;
43986;SDS011;29650;47.378;8.300;2023-09-30T04:54:10;8.75;;;2.40;;
43986;SDS011;29650;47.378;8.300;2023-09-30T04:56:37;10.38;;;3.25;;
43986;SDS011;29650;47.378;8.300;2023-09-30T04:59:04;9.02;;;3.70;;
43986;SDS011;29650;47.378;8.300;2023-09-30T05:01:31;7.93;;;3.17;;
43986;SDS011;29650;47.378;8.300;2023-09-30T05:03:58;9.18;;;3.20;;
43986;SDS011;29650;47.378;8.300;2023-09-30T05:06:26;7.22;;;2.63;;
43986;SDS011;29650;47.378;8.300;2023-09-30T05:08:53;8.82;;;2.83;;
43986;SDS011;29650;47.378;8.300;2023-09-30T05:11:21;9.35;;;3.95;;
43986;SDS011;29650;47.378;8.300;2023-09-30T05:13:48;10.65;;;2.90;;
43986;SDS011;29650;47.378;8.300;2023-09-30T05:16:16;9.18;;;2.95;;
43986;SDS011;29650;47.378;8.300;2023-09-30T05:18:43;9.68;;;3.33;;
43986;SDS011;29650;47.378;8.300;2023-09-30T05:21:10;6.22;;;2.70;;
43986;SDS011;29650;47.378;8.300;2023-09-30T05:23:39;7.47;;;3.40;;
43986;SDS011;29650;47.378;8.300;2023-09-30T05:26:06;11.32;;;3.42;;
43986;SDS011;29650;47.378;8.300;2023-09-30T05:28:33;9.25;;;3.28;;
43986;SDS011;29650;47.378;8.300;2023-09-30T05:31:00;9.55;;;3.55;;
43986;SDS011;29650;47.378;8.300;2023-09-30T05:33:27;12.48;;;3.25;;
43986;SDS011;29650;47.378;8.300;2023-09-30T05:35:55;7.28;;;3.03;;
43986;SDS011;29650;47.378;8.300;2023-09-30T05:38:22;11.45;;;3.58;;
43986;SDS011;29650;47.378;8.300;2023-09-30T05:40:51;9.00;;;3.03;;
43986;SDS011;29650;47.378;8.300;2023-09-30T05:43:19;9.15;;;3.92;;
43986;SDS011;29650;47.378;8.300;2023-09-30T05:45:46;10.80;;;3.25;;
43986;SDS011;29650;47.378;8.300;2023-09-30T05:48:19;11.63;;;3.80;;
43986;SDS011;29650;47.378;8.300;2023-09-30T05:50:46;13.10;;;4.13;;
43986;SDS011;29650;47.378;8.300;2023-09-30T05:53:13;14.10;;;4.43;;
43986;SDS011;29650;47.378;8.300;2023-09-30T05:55:40;13.05;;;4.00;;
43986;SDS011;29650;47.378;8.300;2023-09-30T05:58:09;11.98;;;4.47;;
43986;SDS011;29650;47.378;8.300;2023-09-30T06:00:39;14.05;;;5.15;;
43986;SDS011;29650;47.378;8.300;2023-09-30T06:03:07;11.80;;;4.60;;
43986;SDS011;29650;47.378;8.300;2023-09-30T06:05:34;14.60;;;5.03;;
43986;SDS011;29650;47.378;8.300;2023-09-30T06:08:05;13.43;;;4.90;;
43986;SDS011;29650;47.378;8.300;2023-09-30T06:10:35;14.48;;;5.20;;
43986;SDS011;29650;47.378;8.300;2023-09-30T06:13:03;11.30;;;4.35;;
43986;SDS011;29650;47.378;8.300;2023-09-30T06:15:32;13.65;;;5.05;;
43986;SDS011;29650;47.378;8.300;2023-09-30T06:17:59;20.45;;;5.80;;
43986;SDS011;29650;47.378;8.300;2023-09-30T06:20:26;13.63;;;4.30;;
43986;SDS011;29650;47.378;8.300;2023-09-30T06:22:55;14.88;;;6.10;;
43986;SDS011;29650;47.378;8.300;2023-09-30T06:25:23;18.25;;;5.18;;
43986;SDS011;29650;47.378;8.300;2023-09-30T06:27:50;15.32;;;5.57;;
43986;SDS011;29650;47.378;8.300;2023-09-30T06:30:17;14.73;;;5.47;;
43986;SDS011;29650;47.378;8.300;2023-09-30T06:32:47;20.15;;;6.20;;
43986;SDS011;29650;47.378;8.300;2023-09-30T06:35:14;25.83;;;7.50;;
43986;SDS011;29650;47.378;8.300;2023-09-30T06:37:41;17.80;;;6.28;;
43986;SDS011;29650;47.378;8.300;2023-09-30T06:40:10;16.95;;;5.72;;
43986;SDS011;29650;47.378;8.300;2023-09-30T06:42:38;16.23;;;6.25;;
43986;SDS011;29650;47.378;8.300;2023-09-30T06:45:06;14.63;;;5.50;;
43986;SDS011;29650;47.378;8.300;2023-09-30T06:47:35;14.68;;;5.20;;
43986;SDS011;29650;47.378;8.300;2023-09-30T06:50:05;13.25;;;5.07;;
43986;SDS011;29650;47.378;8.300;2023-09-30T06:52:36;13.93;;;5.35;;
43986;SDS011;29650;47.378;8.300;2023-09-30T06:55:04;15.82;;;5.50;;
43986;SDS011;29650;47.378;8.300;2023-09-30T06:57:33;15.70;;;5.33;;
43986;SDS011;29650;47.378;8.300;2023-09-30T07:00:00;17.05;;;5.32;;
43986;SDS011;29650;47.378;8.300;2023-09-30T07:02:33;11.55;;;4.90;;
43986;SDS011;29650;47.378;8.300;2023-09-30T07:05:01;13.63;;;5.30;;
43986;SDS011;29650;47.378;8.300;2023-09-30T07:07:31;13.77;;;4.75;;
43986;SDS011;29650;47.378;8.300;2023-09-30T07:09:58;15.25;;;4.22;;
43986;SDS011;29650;47.378;8.300;2023-09-30T07:12:25;13.52;;;5.13;;
43986;SDS011;29650;47.378;8.300;2023-09-30T07:14:52;18.20;;;4.88;;
43986;SDS011;29650;47.378;8.300;2023-09-30T07:17:20;12.10;;;4.82;;
43986;SDS011;29650;47.378;8.300;2023-09-30T07:19:47;12.90;;;5.10;;
43986;SDS011;29650;47.378;8.300;2023-09-30T07:22:15;14.10;;;5.53;;
43986;SDS011;29650;47.378;8.300;2023-09-30T07:24:44;15.93;;;6.15;;
43986;SDS011;29650;47.378;8.300;2023-09-30T07:27:11;14.32;;;5.10;;
43986;SDS011;29650;47.378;8.300;2023-09-30T07:29:38;18.27;;;6.43;;
43986;SDS011;29650;47.378;8.300;2023-09-30T07:32:06;13.43;;;5.57;;
43986;SDS011;29650;47.378;8.300;2023-09-30T07:34:34;15.38;;;6.28;;
43986;SDS011;29650;47.378;8.300;2023-09-30T07:37:01;13.77;;;5.22;;
43986;SDS011;29650;47.378;8.300;2023-09-30T07:39:29;11.70;;;4.82;;
43986;SDS011;29650;47.378;8.300;2023-09-30T07:41:57;12.75;;;4.07;;
43986;SDS011;29650;47.378;8.300;2023-09-30T07:44:24;10.93;;;5.07;;
43986;SDS011;29650;47.378;8.300;2023-09-30T07:46:51;13.23;;;4.85;;
43986;SDS011;29650;47.378;8.300;2023-09-30T07:49:18;12.52;;;4.75;;
43986;SDS011;29650;47.378;8.300;2023-09-30T07:51:45;10.18;;;4.15;;
43986;SDS011;29650;47.378;8.300;2023-09-30T07:54:13;12.32;;;4.80;;
43986;SDS011;29650;47.378;8.300;2023-09-30T07:56:40;13.30;;;4.78;;
43986;SDS011;29650;47.378;8.300;2023-09-30T07:59:08;11.65;;;4.80;;
43986;SDS011;29650;47.378;8.300;2023-09-30T08:01:36;11.03;;;4.40;;
43986;SDS011;29650;47.378;8.300;2023-09-30T08:04:03;13.75;;;5.63;;
43986;SDS011;29650;47.378;8.300;2023-09-30T08:06:31;12.98;;;4.72;;
43986;SDS011;29650;47.378;8.300;2023-09-30T08:08:58;15.95;;;4.97;;
43986;SDS011;29650;47.378;8.300;2023-09-30T08:11:25;12.77;;;5.65;;
43986;SDS011;29650;47.378;8.300;2023-09-30T08:13:52;12.75;;;4.50;;
43986;SDS011;29650;47.378;8.300;2023-09-30T08:16:21;15.80;;;5.55;;
43986;SDS011;29650;47.378;8.300;2023-09-30T08:18:48;12.75;;;4.55;;
43986;SDS011;29650;47.378;8.300;2023-09-30T08:21:15;18.83;;;5.28;;
43986;SDS011;29650;47.378;8.300;2023-09-30T08:23:42;13.43;;;4.65;;
43986;SDS011;29650;47.378;8.300;2023-09-30T08:26:09;10.15;;;4.50;;
43986;SDS011;29650;47.378;8.300;2023-09-30T08:28:36;10.13;;;4.15;;
43986;SDS011;29650;47.378;8.300;2023-09-30T08:31:03;11.68;;;4.88;;
43986;SDS011;29650;47.378;8.300;2023-09-30T08:33:33;12.27;;;4.72;;
43986;SDS011;29650;47.378;8.300;2023-09-30T08:36:01;13.60;;;5.22;;
43986;SDS011;29650;47.378;8.300;2023-09-30T08:38:32;11.32;;;4.55;;
43986;SDS011;29650;47.378;8.300;2023-09-30T08:41:00;14.15;;;5.60;;
43986;SDS011;29650;47.378;8.300;2023-09-30T08:43:28;16.77;;;5.68;;
43986;SDS011;29650;47.378;8.300;2023-09-30T08:45:57;14.43;;;5.25;;
43986;SDS011;29650;47.378;8.300;2023-09-30T08:48:25;13.55;;;4.55;;
43986;SDS011;29650;47.378;8.300;2023-09-30T08:50:55;11.20;;;4.35;;
43986;SDS011;29650;47.378;8.300;2023-09-30T08:53:22;13.30;;;5.43;;
43986;SDS011;29650;47.378;8.300;2023-09-30T08:55:50;14.45;;;5.40;;
43986;SDS011;29650;47.378;8.300;2023-09-30T08:58:20;13.95;;;5.22;;
43986;SDS011;29650;47.378;8.300;2023-09-30T09:00:51;12.82;;;5.07;;
43986;SDS011;29650;47.378;8.300;2023-09-30T09:03:18;12.98;;;4.85;;
43986;SDS011;29650;47.378;8.300;2023-09-30T09:05:46;14.10;;;5.13;;
43986;SDS011;29650;47.378;8.300;2023-09-30T09:08:14;13.90;;;4.70;;
43986;SDS011;29650;47.378;8.300;2023-09-30T09:10:54;13.85;;;4.78;;
43986;SDS011;29650;47.378;8.300;2023-09-30T09:13:22;11.68;;;5.13;;
43986;SDS011;29650;47.378;8.300;2023-09-30T09:15:50;12.27;;;4.90;;
43986;SDS011;29650;47.378;8.300;2023-09-30T09:18:31;13.98;;;4.80;;
43986;SDS011;29650;47.378;8.300;2023-09-30T09:21:10;12.10;;;5.05;;
43986;SDS011;29650;47.378;8.300;2023-09-30T09:23:40;10.60;;;4.80;;
43986;SDS011;29650;47.378;8.300;2023-09-30T09:26:11;10.25;;;4.20;;
43986;SDS011;29650;47.378;8.300;2023-09-30T09:28:39;13.82;;;5.20;;
43986;SDS011;29650;47.378;8.300;2023-09-30T09:31:20;12.18;;;4.88;;
43986;SDS011;29650;47.378;8.300;2023-09-30T09:33:49;9.18;;;4.15;;
43986;SDS011;29650;47.378;8.300;2023-09-30T09:36:17;16.98;;;5.22;;
43986;SDS011;29650;47.378;8.300;2023-09-30T09:38:46;13.70;;;5.18;;
43986;SDS011;29650;47.378;8.300;2023-09-30T09:41:15;13.88;;;4.88;;
43986;SDS011;29650;47.378;8.300;2023-09-30T09:43:42;12.93;;;5.20;;
43986;SDS011;29650;47.378;8.300;2023-09-30T09:46:10;11.30;;;4.18;;
43986;SDS011;29650;47.378;8.300;2023-09-30T09:48:39;13.63;;;4.93;;
43986;SDS011;29650;47.378;8.300;2023-09-30T09:51:06;13.43;;;5.13;;
43986;SDS011;29650;47.378;8.300;2023-09-30T09:53:38;14.10;;;5.07;;
43986;SDS011;29650;47.378;8.300;2023-09-30T09:56:09;11.40;;;4.25;;
43986;SDS011;29650;47.378;8.300;2023-09-30T09:58:37;13.98;;;5.20;;
43986;SDS011;29650;47.378;8.300;2023-09-30T10:01:06;11.30;;;3.97;;
43986;SDS011;29650;47.378;8.300;2023-09-30T10:03:35;11.65;;;5.30;;
43986;SDS011;29650;47.378;8.300;2023-09-30T10:06:03;16.90;;;5.30;;
43986;SDS011;29650;47.378;8.300;2023-09-30T10:08:32;11.57;;;5.22;;
43986;SDS011;29650;47.378;8.300;2023-09-30T10:11:02;14.63;;;4.88;;
43986;SDS011;29650;47.378;8.300;2023-09-30T10:19:17;14.40;;;4.95;;
43986;SDS011;29650;47.378;8.300;2023-09-30T10:24:49;13.68;;;5.63;;
43986;SDS011;29650;47.378;8.300;2023-09-30T10:27:30;16.75;;;5.78;;
43986;SDS011;29650;47.378;8.300;2023-09-30T10:30:06;15.10;;;5.32;;
43986;SDS011;29650;47.378;8.300;2023-09-30T10:35:42;16.08;;;5.93;;
43986;SDS011;29650;47.378;8.300;2023-09-30T10:41:08;12.20;;;4.78;;
43986;SDS011;29650;47.378;8.300;2023-09-30T10:43:37;12.45;;;4.72;;
43986;SDS011;29650;47.378;8.300;2023-09-30T10:52:01;13.52;;;5.97;;
43986;SDS011;29650;47.378;8.300;2023-09-30T10:54:28;13.52;;;5.05;;
43986;SDS011;29650;47.378;8.300;2023-09-30T10:56:56;17.67;;;5.97;;
43986;SDS011;29650;47.378;8.300;2023-09-30T10:59:25;11.95;;;5.28;;
43986;SDS011;29650;47.378;8.300;2023-09-30T11:01:56;10.80;;;5.13;;
43986;SDS011;29650;47.378;8.300;2023-09-30T11:04:24;15.07;;;5.70;;
43986;SDS011;29650;47.378;8.300;2023-09-30T11:06:52;13.13;;;5.65;;
43986;SDS011;29650;47.378;8.300;2023-09-30T11:09:20;13.68;;;5.57;;
43986;SDS011;29650;47.378;8.300;2023-09-30T11:11:48;13.75;;;5.80;;
43986;SDS011;29650;47.378;8.300;2023-09-30T11:14:20;14.18;;;5.78;;
43986;SDS011;29650;47.378;8.300;2023-09-30T11:16:49;14.27;;;6.38;;
43986;SDS011;29650;47.378;8.300;2023-09-30T11:21:48;18.20;;;6.78;;
43986;SDS011;29650;47.378;8.300;2023-09-30T11:24:16;14.60;;;6.28;;
43986;SDS011;29650;47.378;8.300;2023-09-30T11:26:43;14.23;;;5.68;;
43986;SDS011;29650;47.378;8.300;2023-09-30T11:29:11;13.52;;;5.95;;
43986;SDS011;29650;47.378;8.300;2023-09-30T11:34:08;16.50;;;6.40;;
43986;SDS011;29650;47.378;8.300;2023-09-30T11:36:39;13.40;;;5.60;;
43986;SDS011;29650;47.378;8.300;2023-09-30T11:39:08;15.80;;;5.82;;
43986;SDS011;29650;47.378;8.300;2023-09-30T11:41:38;14.50;;;5.63;;
43986;SDS011;29650;47.378;8.300;2023-09-30T11:44:07;16.83;;;6.78;;
43986;SDS011;29650;47.378;8.300;2023-09-30T11:46:48;15.60;;;6.85;;
43986;SDS011;29650;47.378;8.300;2023-09-30T11:49:24;16.50;;;6.93;;
43986;SDS011;29650;47.378;8.300;2023-09-30T11:51:58;20.80;;;7.13;;
43986;SDS011;29650;47.378;8.300;2023-09-30T11:54:29;15.10;;;6.13;;
43986;SDS011;29650;47.378;8.300;2023-09-30T11:56:58;18.95;;;7.18;;
43986;SDS011;29650;47.378;8.300;2023-09-30T11:59:25;18.13;;;6.85;;
43986;SDS011;29650;47.378;8.300;2023-09-30T12:01:52;14.90;;;6.57;;
43986;SDS011;29650;47.378;8.300;2023-09-30T12:04:19;17.48;;;6.55;;
43986;SDS011;29650;47.378;8.300;2023-09-30T12:06:47;17.90;;;7.00;;
43986;SDS011;29650;47.378;8.300;2023-09-30T12:09:15;18.92;;;7.03;;
43986;SDS011;29650;47.378;8.300;2023-09-30T12:11:47;17.33;;;6.45;;
43986;SDS011;29650;47.378;8.300;2023-09-30T12:14:14;16.23;;;6.53;;
43986;SDS011;29650;47.378;8.300;2023-09-30T12:16:41;19.80;;;6.70;;
43986;SDS011;29650;47.378;8.300;2023-09-30T12:19:10;20.15;;;7.35;;
43986;SDS011;29650;47.378;8.300;2023-09-30T12:21:38;16.00;;;7.18;;
43986;SDS011;29650;47.378;8.300;2023-09-30T12:24:06;15.15;;;5.90;;
43986;SDS011;29650;47.378;8.300;2023-09-30T12:26:35;15.40;;;6.33;;
43986;SDS011;29650;47.378;8.300;2023-09-30T12:29:06;15.65;;;7.15;;
43986;SDS011;29650;47.378;8.300;2023-09-30T12:31:34;16.63;;;6.28;;
43986;SDS011;29650;47.378;8.300;2023-09-30T12:34:01;15.32;;;6.45;;
43986;SDS011;29650;47.378;8.300;2023-09-30T12:36:28;17.05;;;7.18;;
43986;SDS011;29650;47.378;8.300;2023-09-30T12:38:55;18.08;;;7.18;;
43986;SDS011;29650;47.378;8.300;2023-09-30T12:41:23;15.98;;;6.90;;
43986;SDS011;29650;47.378;8.300;2023-09-30T12:43:51;15.23;;;6.15;;
43986;SDS011;29650;47.378;8.300;2023-09-30T12:46:18;16.05;;;6.32;;
43986;SDS011;29650;47.378;8.300;2023-09-30T12:48:45;20.67;;;6.72;;
43986;SDS011;29650;47.378;8.300;2023-09-30T12:51:13;14.02;;;5.40;;
43986;SDS011;29650;47.378;8.300;2023-09-30T12:53:40;16.20;;;5.70;;
43986;SDS011;29650;47.378;8.300;2023-09-30T12:56:07;15.68;;;6.53;;
43986;SDS011;29650;47.378;8.300;2023-09-30T12:58:34;15.27;;;6.18;;
43986;SDS011;29650;47.378;8.300;2023-09-30T13:01:04;14.98;;;6.28;;
43986;SDS011;29650;47.378;8.300;2023-09-30T13:06:00;13.80;;;5.65;;
43986;SDS011;29650;47.378;8.300;2023-09-30T13:08:27;17.42;;;6.70;;
43986;SDS011;29650;47.378;8.300;2023-09-30T13:10:58;15.95;;;6.32;;
43986;SDS011;29650;47.378;8.300;2023-09-30T13:13:27;15.80;;;6.80;;
43986;SDS011;29650;47.378;8.300;2023-09-30T13:15:54;12.70;;;5.97;;
43986;SDS011;29650;47.378;8.300;2023-09-30T13:18:22;15.63;;;5.85;;
43986;SDS011;29650;47.378;8.300;2023-09-30T13:20:49;14.88;;;6.93;;
43986;SDS011;29650;47.378;8.300;2023-09-30T13:23:17;15.02;;;5.88;;
43986;SDS011;29650;47.378;8.300;2023-09-30T13:25:44;12.38;;;5.85;;
43986;SDS011;29650;47.378;8.300;2023-09-30T13:28:11;11.93;;;5.45;;
43986;SDS011;29650;47.378;8.300;2023-09-30T13:30:39;15.75;;;5.70;;
43986;SDS011;29650;47.378;8.300;2023-09-30T13:33:06;13.30;;;5.35;;
43986;SDS011;29650;47.378;8.300;2023-09-30T13:35:34;12.80;;;5.10;;
43986;SDS011;29650;47.378;8.300;2023-09-30T13:38:02;14.57;;;5.90;;
43986;SDS011;29650;47.378;8.300;2023-09-30T13:40:29;12.02;;;5.20;;
43986;SDS011;29650;47.378;8.300;2023-09-30T13:42:56;13.13;;;5.68;;
43986;SDS011;29650;47.378;8.300;2023-09-30T13:45:24;14.75;;;4.93;;
43986;SDS011;29650;47.378;8.300;2023-09-30T13:47:53;13.32;;;4.65;;
43986;SDS011;29650;47.378;8.300;2023-09-30T13:50:20;11.43;;;4.93;;
43986;SDS011;29650;47.378;8.300;2023-09-30T13:52:49;17.83;;;5.97;;
43986;SDS011;29650;47.378;8.300;2023-09-30T13:55:16;12.70;;;4.60;;
43986;SDS011;29650;47.378;8.300;2023-09-30T13:57:44;13.73;;;6.47;;
43986;SDS011;29650;47.378;8.300;2023-09-30T14:00:12;12.30;;;4.75;;
43986;SDS011;29650;47.378;8.300;2023-09-30T14:02:40;16.98;;;5.70;;
43986;SDS011;29650;47.378;8.300;2023-09-30T14:05:07;13.20;;;5.43;;
43986;SDS011;29650;47.378;8.300;2023-09-30T14:07:34;12.98;;;5.22;;
43986;SDS011;29650;47.378;8.300;2023-09-30T14:10:03;15.52;;;5.75;;
43986;SDS011;29650;47.378;8.300;2023-09-30T14:12:30;14.02;;;5.55;;
43986;SDS011;29650;47.378;8.300;2023-09-30T14:14:58;16.63;;;6.30;;
43986;SDS011;29650;47.378;8.300;2023-09-30T14:17:25;12.77;;;5.03;;
43986;SDS011;29650;47.378;8.300;2023-09-30T14:19:52;15.52;;;5.03;;
43986;SDS011;29650;47.378;8.300;2023-09-30T14:22:19;14.90;;;5.35;;
43986;SDS011;29650;47.378;8.300;2023-09-30T14:24:45;13.65;;;5.57;;
43986;SDS011;29650;47.378;8.300;2023-09-30T14:27:14;13.32;;;5.45;;
43986;SDS011;29650;47.378;8.300;2023-09-30T14:29:41;14.43;;;5.43;;
43986;SDS011;29650;47.378;8.300;2023-09-30T14:32:08;15.13;;;4.97;;
43986;SDS011;29650;47.378;8.300;2023-09-30T14:34:35;11.77;;;5.50;;
43986;SDS011;29650;47.378;8.300;2023-09-30T14:37:04;11.85;;;4.50;;
43986;SDS011;29650;47.378;8.300;2023-09-30T14:39:30;9.88;;;4.63;;
43986;SDS011;29650;47.378;8.300;2023-09-30T14:41:57;12.60;;;4.97;;
43986;SDS011;29650;47.378;8.300;2023-09-30T14:44:26;11.77;;;5.05;;
43986;SDS011;29650;47.378;8.300;2023-09-30T14:46:52;12.05;;;5.25;;
43986;SDS011;29650;47.378;8.300;2023-09-30T14:49:21;12.85;;;5.43;;
43986;SDS011;29650;47.378;8.300;2023-09-30T14:51:48;12.80;;;4.95;;
43986;SDS011;29650;47.378;8.300;2023-09-30T14:54:15;11.13;;;4.57;;
43986;SDS011;29650;47.378;8.300;2023-09-30T14:56:42;9.80;;;4.80;;
43986;SDS011;29650;47.378;8.300;2023-09-30T14:59:08;9.80;;;4.55;;
43986;SDS011;29650;47.378;8.300;2023-09-30T15:01:37;16.08;;;6.35;;
43986;SDS011;29650;47.378;8.300;2023-09-30T15:04:04;12.93;;;5.30;;
43986;SDS011;29650;47.378;8.300;2023-09-30T15:06:32;10.45;;;4.72;;
43986;SDS011;29650;47.378;8.300;2023-09-30T15:08:59;12.25;;;5.07;;
43986;SDS011;29650;47.378;8.300;2023-09-30T15:11:27;11.85;;;5.47;;
43986;SDS011;29650;47.378;8.300;2023-09-30T15:13:54;11.57;;;4.60;;